Bustins Island, Maine
Current Conditions -  °F | °C
As of 8:51 PM on Saturday 20 Dec 2014 (Local Time) from KPWM Reporting Station
Overcast Overcast  
Wind Chill: 16°   Ceiling: 1100
Heat Index: 25°   Visibility: 10mi
Dew Point: 19°   Wind: 9mph
Humidity: 78%   Direction: 20°NNE
Pressure: 30.38"   Gusts: NA
Location:  43.8°N, 70.07°W
Report Text: KPWM 210151Z 02008KT 10SM OVC011 M04/M07 A3038 RMK AO2 SLP289 T10391072
Loading
Personal Weather Stations






























Interactive Weather Map New forecast layout! Learn more

10-Day Weather Forecast

Advertisements
Track Severe Weather on mobile